createdAt,value
2022-08-31T00:01:21.573Z,74438.59
2022-08-31T00:03:55.243Z,74434.50
2022-08-31T00:06:22.727Z,74409.84
2022-08-31T00:08:49.872Z,74405.72
2022-08-31T00:11:17.173Z,74418.06
2022-08-31T00:13:46.494Z,74459.16
2022-08-31T00:16:13.971Z,74440.66
2022-08-31T00:18:41.938Z,74434.50
2022-08-31T00:21:09.123Z,74422.16
2022-08-31T00:23:36.678Z,74420.09
2022-08-31T00:26:03.871Z,74422.16
2022-08-31T00:28:30.982Z,74413.94
2022-08-31T00:30:58.090Z,74424.22
2022-08-31T00:33:25.370Z,74409.84
2022-08-31T00:35:53.358Z,74413.94
2022-08-31T00:38:21.923Z,74436.53
2022-08-31T00:40:49.206Z,74467.34
2022-08-31T00:43:34.746Z,74524.88
2022-08-31T00:46:02.137Z,74537.22
2022-08-31T00:48:29.521Z,74531.03
2022-08-31T00:50:56.886Z,74533.09
2022-08-31T00:53:24.108Z,74529.00
2022-08-31T00:55:51.523Z,74492.00
2022-08-31T00:58:18.648Z,74500.22
2022-08-31T01:00:46.384Z,74504.34
2022-08-31T01:03:13.745Z,74512.56
2022-08-31T01:05:41.589Z,74524.88
2022-08-31T01:08:08.798Z,74549.53
2022-08-31T01:10:37.110Z,74557.75
2022-08-31T01:13:04.362Z,74594.75
2022-08-31T01:15:31.911Z,74625.56
2022-08-31T01:17:59.801Z,74621.44
2022-08-31T01:20:30.324Z,74660.47
2022-08-31T01:23:11.258Z,74656.38
2022-08-31T01:25:41.406Z,74648.16
2022-08-31T01:28:08.646Z,74644.03
2022-08-31T01:30:36.335Z,74648.16
2022-08-31T01:33:04.034Z,74635.81
2022-08-31T01:35:31.166Z,74602.94
2022-08-31T01:37:58.471Z,74598.84
2022-08-31T01:40:34.948Z,74615.28
2022-08-31T01:43:02.141Z,74611.16
2022-08-31T01:45:29.405Z,74598.84
2022-08-31T01:47:57.348Z,74590.63
2022-08-31T01:50:24.490Z,74594.75
2022-08-31T01:52:51.623Z,74584.47
2022-08-31T01:55:18.792Z,74590.63
2022-08-31T01:57:45.911Z,74565.97
2022-08-31T02:00:13.259Z,74570.09
2022-08-31T02:02:42.062Z,74586.53
2022-08-31T02:05:10.336Z,74594.75
2022-08-31T02:07:37.807Z,74592.69
2022-08-31T02:10:05.176Z,74619.38
2022-08-31T02:12:32.375Z,74635.81
2022-08-31T02:14:59.682Z,74607.06
2022-08-31T02:17:26.753Z,74582.41
2022-08-31T02:19:53.899Z,74590.63
2022-08-31T02:22:20.986Z,74582.41
2022-08-31T02:24:48.043Z,74594.75
2022-08-31T02:27:15.178Z,74598.84
2022-08-31T02:29:42.251Z,74592.69
2022-08-31T02:32:09.430Z,74605.00
2022-08-31T02:34:48.455Z,74598.84
2022-08-31T02:37:15.867Z,74611.16
2022-08-31T02:39:44.604Z,74631.72
2022-08-31T02:42:11.956Z,74621.44
2022-08-31T02:44:39.169Z,74615.28
2022-08-31T02:47:06.306Z,74611.16
2022-08-31T02:49:33.694Z,74621.44
2022-08-31T02:52:00.908Z,74631.72
2022-08-31T02:54:28.281Z,74635.81
2022-08-31T02:56:55.603Z,74627.59
2022-08-31T02:59:22.757Z,74619.38
2022-08-31T03:01:55.677Z,74623.50
2022-08-31T03:04:23.018Z,74623.50
2022-08-31T03:06:50.172Z,74623.50
2022-08-31T03:09:17.250Z,74621.44
2022-08-31T03:11:44.693Z,74625.56
2022-08-31T03:14:11.753Z,74625.56
2022-08-31T03:16:40.025Z,74631.72
2022-08-31T03:19:07.621Z,74633.78
2022-08-31T03:21:35.014Z,74623.50
2022-08-31T03:24:02.211Z,74619.38
2022-08-31T03:26:29.610Z,74623.50
2022-08-31T03:28:56.691Z,74644.03
2022-08-31T03:31:24.521Z,74619.38
2022-08-31T03:33:51.733Z,74613.22
2022-08-31T03:36:18.897Z,74607.06
2022-08-31T03:38:46.099Z,74611.16
2022-08-31T03:41:13.357Z,74598.84
2022-08-31T03:43:41.840Z,74598.84
2022-08-31T03:46:12.024Z,74594.75
2022-08-31T03:48:39.505Z,74602.94
2022-08-31T03:51:07.250Z,74590.63
2022-08-31T03:53:35.486Z,74598.84
2022-08-31T03:56:04.002Z,74590.63
2022-08-31T03:58:31.446Z,74578.31
2022-08-31T04:00:58.528Z,74578.31
2022-08-31T04:03:25.662Z,74568.03
2022-08-31T04:05:52.972Z,74568.03
2022-08-31T04:08:20.179Z,74565.97
2022-08-31T04:10:48.549Z,74572.13
2022-08-31T04:13:15.800Z,74545.44
2022-08-31T04:15:49.297Z,74541.31
2022-08-31T04:18:17.563Z,74594.75
2022-08-31T04:20:44.681Z,74594.75
2022-08-31T04:23:11.784Z,74563.91
2022-08-31T04:25:39.623Z,74553.66
2022-08-31T04:28:09.038Z,74553.66
2022-08-31T04:30:39.942Z,74553.66
2022-08-31T04:33:07.251Z,74561.88
2022-08-31T04:35:34.733Z,74545.44
2022-08-31T04:38:01.823Z,74529.00
2022-08-31T04:40:29.149Z,74524.88
2022-08-31T04:42:56.488Z,74547.47
2022-08-31T04:45:24.682Z,74537.22
2022-08-31T04:47:51.800Z,74524.88
2022-08-31T04:50:18.910Z,74524.88
2022-08-31T04:53:03.038Z,74537.22
2022-08-31T04:55:30.906Z,74557.75
2022-08-31T04:57:58.011Z,74553.66
2022-08-31T05:00:25.442Z,74549.53
2022-08-31T05:02:54.184Z,74557.75
2022-08-31T05:05:21.436Z,74545.44
2022-08-31T05:07:49.297Z,74545.44
2022-08-31T05:10:16.448Z,74561.88
2022-08-31T05:12:45.440Z,74541.31
2022-08-31T05:15:12.639Z,74557.75
2022-08-31T05:17:39.760Z,74559.81
2022-08-31T05:20:07.620Z,74541.31
2022-08-31T05:22:34.839Z,74516.66
2022-08-31T05:25:02.027Z,74516.66
2022-08-31T05:27:29.347Z,74510.50
2022-08-31T05:29:56.428Z,74529.00
2022-08-31T05:32:23.746Z,74524.88
2022-08-31T05:34:52.655Z,74487.91
2022-08-31T05:37:19.875Z,74483.78
2022-08-31T05:39:46.997Z,74500.22
2022-08-31T05:42:15.512Z,74512.56
2022-08-31T05:44:42.884Z,74516.66
2022-08-31T05:47:10.164Z,74504.34
2022-08-31T05:49:37.411Z,74487.91
2022-08-31T05:52:08.133Z,74450.94
2022-08-31T05:54:40.107Z,74426.28
2022-08-31T05:57:07.186Z,74442.72
2022-08-31T05:59:34.317Z,74424.22
2022-08-31T06:02:02.145Z,74430.38
2022-08-31T06:04:29.498Z,74418.06
2022-08-31T06:06:57.299Z,74424.22
2022-08-31T06:09:24.618Z,74422.16
2022-08-31T06:11:54.286Z,74409.84
2022-08-31T06:14:22.988Z,74397.50
2022-08-31T06:16:50.904Z,74376.97
2022-08-31T06:19:18.068Z,74344.09
2022-08-31T06:21:50.380Z,74331.78
2022-08-31T06:24:18.325Z,74374.91
2022-08-31T06:26:56.707Z,74335.88
2022-08-31T06:29:25.097Z,74331.78
2022-08-31T06:31:52.718Z,74321.50
2022-08-31T06:34:20.086Z,74321.50
2022-08-31T06:36:48.954Z,74282.47
2022-08-31T06:39:16.307Z,74294.78
2022-08-31T06:41:43.625Z,74286.56
2022-08-31T06:44:11.331Z,74294.78
2022-08-31T06:46:38.956Z,74274.25
2022-08-31T06:49:06.207Z,74233.16
2022-08-31T06:51:38.921Z,74216.72
2022-08-31T06:54:27.472Z,74165.38
2022-08-31T06:56:54.479Z,74140.72
2022-08-31T06:59:25.287Z,74130.44
2022-08-31T07:01:55.051Z,74161.28
2022-08-31T07:04:22.280Z,74179.75
2022-08-31T07:06:49.767Z,74126.34
2022-08-31T07:09:18.291Z,74107.84
2022-08-31T07:11:46.972Z,74056.50
2022-08-31T07:14:14.776Z,74035.97
2022-08-31T07:16:42.509Z,74035.97
2022-08-31T07:19:09.778Z,74070.88
2022-08-31T07:21:44.602Z,74040.06
2022-08-31T07:24:12.177Z,73994.88
2022-08-31T07:26:45.118Z,73953.78
2022-08-31T07:29:15.013Z,73904.50
2022-08-31T07:31:46.469Z,73871.63
2022-08-31T07:34:14.632Z,73869.56
2022-08-31T07:37:00.858Z,73867.53
2022-08-31T07:39:46.735Z,73920.94
2022-08-31T07:42:14.861Z,73931.19
2022-08-31T07:44:42.026Z,73949.69
2022-08-31T07:47:22.518Z,73962.00
2022-08-31T07:49:51.384Z,73974.34
2022-08-31T07:52:22.067Z,73914.78
2022-08-31T07:54:49.767Z,73855.19
2022-08-31T07:57:18.956Z,73842.88
2022-08-31T07:59:47.241Z,73826.44
2022-08-31T08:02:17.421Z,73834.66
2022-08-31T08:04:45.419Z,73822.34
2022-08-31T08:07:12.743Z,73810.00
2022-08-31T08:09:48.026Z,73830.56
2022-08-31T08:12:15.545Z,73810.00
2022-08-31T08:14:42.821Z,73805.91
2022-08-31T08:17:10.237Z,73836.72
2022-08-31T08:19:37.496Z,73834.66
2022-08-31T08:22:06.404Z,73793.59
2022-08-31T08:24:33.751Z,73764.81
2022-08-31T08:27:01.119Z,73723.75
2022-08-31T08:29:29.937Z,73666.22
2022-08-31T08:32:00.932Z,73678.56
2022-08-31T08:34:32.721Z,73658.03
2022-08-31T08:37:00.279Z,73588.19
2022-08-31T08:39:27.513Z,73487.56
2022-08-31T08:41:54.944Z,73339.69
2022-08-31T08:44:22.036Z,73161.00
2022-08-31T08:46:51.436Z,72947.44
2022-08-31T08:49:24.880Z,72920.75
2022-08-31T08:51:53.772Z,72889.94
2022-08-31T08:54:31.357Z,72766.72
2022-08-31T08:57:01.404Z,72664.06
2022-08-31T08:59:29.225Z,72701.03
2022-08-31T09:02:02.023Z,72709.25
2022-08-31T09:04:43.964Z,72625.06
2022-08-31T09:07:30.891Z,72627.09
2022-08-31T09:10:30.724Z,72561.41
2022-08-31T09:13:18.331Z,72557.28
2022-08-31T09:15:49.031Z,72364.28
2022-08-31T09:18:16.287Z,72323.22
2022-08-31T09:20:43.443Z,72358.13
2022-08-31T09:23:14.354Z,72294.50
2022-08-31T09:25:52.209Z,72257.53
2022-08-31T09:28:33.996Z,72271.91
2022-08-31T09:31:01.357Z,72276.00
2022-08-31T09:33:29.802Z,72187.72
2022-08-31T09:36:18.536Z,72273.97
2022-08-31T09:38:46.940Z,72247.25
2022-08-31T09:41:31.114Z,72329.38
2022-08-31T09:44:17.137Z,72115.88
2022-08-31T09:46:48.571Z,72027.59
2022-08-31T09:49:18.999Z,72046.06
2022-08-31T09:51:48.633Z,72101.50
2022-08-31T09:54:34.618Z,72076.88
2022-08-31T09:57:02.644Z,71996.81
2022-08-31T09:59:44.264Z,72007.06
2022-08-31T10:02:26.232Z,72025.53
2022-08-31T10:04:55.090Z,72146.66
2022-08-31T10:07:24.968Z,71875.69
2022-08-31T10:09:57.766Z,71855.16
2022-08-31T10:12:40.882Z,72044.03
2022-08-31T10:15:16.742Z,71998.84
2022-08-31T10:17:56.270Z,72134.34
2022-08-31T10:20:29.776Z,72249.31
2022-08-31T10:22:58.527Z,72158.97
2022-08-31T10:25:27.061Z,72226.72
2022-08-31T10:27:55.999Z,72294.50
2022-08-31T10:30:24.607Z,72101.50
2022-08-31T10:32:51.743Z,72179.50
2022-08-31T10:35:19.780Z,72072.75
2022-08-31T10:37:56.589Z,71994.75
2022-08-31T10:40:34.003Z,72015.28
2022-08-31T10:43:22.049Z,71990.63
2022-08-31T10:45:51.128Z,71990.63
2022-08-31T10:48:25.323Z,72101.50
2022-08-31T10:51:05.816Z,72068.66
2022-08-31T10:53:45.630Z,72031.69
2022-08-31T10:56:24.170Z,71929.06
2022-08-31T10:58:54.473Z,72039.91
2022-08-31T11:01:33.563Z,72000.91
2022-08-31T11:04:20.043Z,71896.22
2022-08-31T11:07:08.111Z,71998.84
2022-08-31T11:09:39.526Z,71904.41
2022-08-31T11:12:08.389Z,71703.25
2022-08-31T11:14:44.035Z,71736.09
2022-08-31T11:17:33.033Z,71703.25
2022-08-31T11:20:03.732Z,71717.63
2022-08-31T11:22:51.170Z,71662.19
2022-08-31T11:25:37.673Z,71623.19
2022-08-31T11:28:07.458Z,71717.63
2022-08-31T11:30:38.627Z,71818.19
2022-08-31T11:33:16.364Z,72000.91
2022-08-31T11:35:49.711Z,72146.66
2022-08-31T11:38:36.253Z,72214.41
2022-08-31T11:41:04.056Z,72228.78
2022-08-31T11:43:31.717Z,72351.97
2022-08-31T11:46:01.631Z,72204.16
2022-08-31T11:48:59.173Z,72136.41
2022-08-31T11:51:36.034Z,72253.44
2022-08-31T11:54:12.758Z,72312.97
2022-08-31T11:56:42.235Z,72393.03
2022-08-31T11:59:29.074Z,72331.44
2022-08-31T12:01:57.257Z,72208.25
2022-08-31T12:04:30.532Z,72245.22
2022-08-31T12:06:58.947Z,72319.13
2022-08-31T12:10:05.386Z,72187.72
2022-08-31T12:12:51.375Z,72241.09
2022-08-31T12:15:18.488Z,72436.16
2022-08-31T12:18:04.943Z,72503.91
2022-08-31T12:20:32.284Z,72471.06
2022-08-31T12:23:30.673Z,72508.03
2022-08-31T12:26:07.421Z,72653.81
2022-08-31T12:28:53.050Z,72696.91
2022-08-31T12:31:20.195Z,72639.44
2022-08-31T12:33:59.458Z,72557.28
2022-08-31T12:36:27.606Z,72536.75
2022-08-31T12:39:04.798Z,72224.69
2022-08-31T12:41:32.394Z,72208.25
2022-08-31T12:43:59.586Z,72183.63
2022-08-31T12:46:34.023Z,71949.59
2022-08-31T12:49:33.990Z,71945.47
2022-08-31T12:52:01.098Z,71883.91
2022-08-31T12:54:47.207Z,72039.91
2022-08-31T12:57:33.360Z,72237.00
2022-08-31T13:00:02.114Z,72306.81
2022-08-31T13:02:30.824Z,72230.84
2022-08-31T13:04:58.113Z,72195.94
2022-08-31T13:07:32.495Z,72146.66
2022-08-31T13:10:04.197Z,72171.31
2022-08-31T13:12:31.514Z,72200.03
2022-08-31T13:14:59.115Z,72317.06
2022-08-31T13:17:26.523Z,72518.28
2022-08-31T13:19:57.443Z,72793.44
2022-08-31T13:22:28.919Z,72807.81
2022-08-31T13:24:57.587Z,72670.22
2022-08-31T13:27:30.278Z,72446.41
2022-08-31T13:30:00.513Z,72462.84
2022-08-31T13:32:30.798Z,72425.88
2022-08-31T13:35:04.486Z,72458.75
2022-08-31T13:37:33.524Z,72198.00
2022-08-31T13:40:09.796Z,72212.38
2022-08-31T13:42:41.281Z,72142.56
2022-08-31T13:45:29.128Z,72561.41
2022-08-31T13:47:58.195Z,72532.66
2022-08-31T13:50:28.230Z,72635.31
2022-08-31T13:53:24.880Z,72586.03
2022-08-31T13:55:43.788Z,72631.22
2022-08-31T13:58:27.121Z,72553.19
2022-08-31T14:00:58.248Z,72497.75
2022-08-31T14:03:46.656Z,72360.19
2022-08-31T14:06:26.928Z,72306.81
2022-08-31T14:09:03.615Z,72327.34
2022-08-31T14:11:31.749Z,72265.75
2022-08-31T14:14:05.896Z,72508.03
2022-08-31T14:16:43.821Z,72448.47
2022-08-31T14:19:31.851Z,72565.50
2022-08-31T14:22:13.470Z,72508.03
2022-08-31T14:24:42.113Z,72442.31
2022-08-31T14:27:12.181Z,72425.88
2022-08-31T14:29:42.121Z,72421.78
2022-08-31T14:32:09.398Z,72688.72
2022-08-31T14:34:36.973Z,72885.84
2022-08-31T14:37:08.745Z,72992.63
2022-08-31T14:39:36.352Z,73058.31
2022-08-31T14:42:03.839Z,73103.50
2022-08-31T14:44:33.780Z,73037.78
2022-08-31T14:47:01.505Z,73066.53
2022-08-31T14:49:32.691Z,73050.13
2022-08-31T14:52:06.421Z,73035.75
2022-08-31T14:54:37.222Z,73101.44
2022-08-31T14:57:06.406Z,73161.00
2022-08-31T14:59:35.658Z,73070.66
2022-08-31T15:02:02.948Z,73117.88
2022-08-31T15:04:33.265Z,73136.38
2022-08-31T15:07:10.055Z,73136.38
2022-08-31T15:09:41.943Z,73278.06
2022-08-31T15:12:14.800Z,73302.72
2022-08-31T15:14:44.617Z,73308.88
2022-08-31T15:17:18.765Z,73237.00
2022-08-31T15:19:48.168Z,73280.13
2022-08-31T15:22:16.144Z,73300.66
2022-08-31T15:24:46.294Z,73432.09
2022-08-31T15:27:15.076Z,73448.53
2022-08-31T15:29:43.448Z,73485.50
2022-08-31T15:32:10.560Z,73522.47
2022-08-31T15:34:37.812Z,73491.66
2022-08-31T15:37:05.830Z,73506.03
2022-08-31T15:39:35.707Z,73530.69
2022-08-31T15:42:09.271Z,73543.00
2022-08-31T15:44:40.761Z,73567.66
2022-08-31T15:47:26.552Z,73600.50
2022-08-31T15:49:54.796Z,73596.41
2022-08-31T15:52:23.190Z,73651.84
2022-08-31T15:54:50.473Z,73674.44
2022-08-31T15:57:17.598Z,73674.44
2022-08-31T15:59:45.859Z,73690.88
2022-08-31T16:02:13.551Z,73682.66
2022-08-31T16:04:43.471Z,73727.84
2022-08-31T16:07:11.307Z,73779.19
2022-08-31T16:09:44.660Z,73752.50
2022-08-31T16:12:15.430Z,73810.00
2022-08-31T16:14:45.291Z,73855.19
2022-08-31T16:17:14.492Z,73863.41
2022-08-31T16:19:41.902Z,73867.53
2022-08-31T16:22:09.169Z,73871.63
2022-08-31T16:24:37.367Z,73873.69
2022-08-31T16:27:06.336Z,73871.63
2022-08-31T16:29:34.678Z,73912.72
2022-08-31T16:32:02.559Z,73904.50
2022-08-31T16:34:31.573Z,73920.94
2022-08-31T16:37:02.436Z,73929.16
2022-08-31T16:39:29.551Z,73933.25
2022-08-31T16:41:56.937Z,73945.59
2022-08-31T16:44:24.022Z,73962.00
2022-08-31T16:47:00.911Z,73990.78
2022-08-31T16:49:34.166Z,73984.59
2022-08-31T16:52:03.422Z,74017.47
2022-08-31T16:54:30.756Z,74011.31
2022-08-31T16:56:57.984Z,74023.63
2022-08-31T16:59:26.339Z,74015.41
2022-08-31T17:01:53.641Z,74040.06
2022-08-31T17:04:41.112Z,74050.34
2022-08-31T17:07:10.702Z,74056.50
2022-08-31T17:09:38.242Z,74072.94
2022-08-31T17:12:10.263Z,74070.88
2022-08-31T17:14:43.560Z,74077.03
2022-08-31T17:17:11.297Z,74097.59
2022-08-31T17:19:39.144Z,74097.59
2022-08-31T17:22:07.039Z,74122.25
2022-08-31T17:24:38.788Z,74128.41
2022-08-31T17:27:09.488Z,74134.56
2022-08-31T17:29:43.699Z,74167.44
2022-08-31T17:32:12.003Z,74146.88
2022-08-31T17:34:39.367Z,74136.63
2022-08-31T17:37:07.522Z,74138.66
2022-08-31T17:39:34.691Z,74157.16
2022-08-31T17:42:02.027Z,74138.66
2022-08-31T17:44:30.927Z,74183.88
2022-08-31T17:46:58.943Z,74192.09
2022-08-31T17:49:26.752Z,74192.09
2022-08-31T17:51:54.198Z,74187.97
2022-08-31T17:54:22.458Z,74204.41
2022-08-31T17:56:51.381Z,74208.50
2022-08-31T17:59:19.213Z,74224.94
2022-08-31T18:01:47.054Z,74253.72
2022-08-31T18:04:14.306Z,74218.78
2022-08-31T18:06:47.426Z,74212.63
2022-08-31T18:09:14.852Z,74224.94
2022-08-31T18:11:45.429Z,74216.72
2022-08-31T18:14:13.239Z,74229.06
2022-08-31T18:16:41.232Z,74229.06
2022-08-31T18:19:08.498Z,74241.38
2022-08-31T18:21:35.758Z,74233.16
2022-08-31T18:24:02.979Z,74249.59
2022-08-31T18:26:31.098Z,74270.16
2022-08-31T18:28:58.204Z,74257.81
2022-08-31T18:31:30.726Z,74282.47
2022-08-31T18:34:01.349Z,74282.47
2022-08-31T18:36:29.410Z,74303.00
2022-08-31T18:38:57.634Z,74296.84
2022-08-31T18:41:44.591Z,74294.78
2022-08-31T18:44:30.411Z,74298.91
2022-08-31T18:46:57.880Z,74282.47
2022-08-31T18:49:25.028Z,74292.75
2022-08-31T18:51:52.507Z,74333.81
2022-08-31T18:54:20.062Z,74315.34
2022-08-31T18:56:47.518Z,74348.22
2022-08-31T18:59:15.257Z,74335.88
2022-08-31T19:01:44.152Z,74354.38
2022-08-31T19:04:11.758Z,74348.22
2022-08-31T19:06:39.976Z,74364.63
2022-08-31T19:09:07.822Z,74366.69
2022-08-31T19:11:38.308Z,74374.91
2022-08-31T19:14:05.717Z,74372.84
2022-08-31T19:16:32.853Z,74385.19
2022-08-31T19:18:59.979Z,74397.50
2022-08-31T19:21:32.859Z,74352.31
2022-08-31T19:24:02.614Z,74372.84
2022-08-31T19:26:34.246Z,74368.75
2022-08-31T19:29:02.951Z,74360.53
2022-08-31T19:31:30.466Z,74385.19
2022-08-31T19:33:57.782Z,74385.19
2022-08-31T19:36:25.307Z,74393.41
2022-08-31T19:38:54.087Z,74387.25
2022-08-31T19:41:22.014Z,74413.94
2022-08-31T19:44:01.946Z,74383.13
2022-08-31T19:46:35.718Z,74372.84
2022-08-31T19:49:03.557Z,74379.03
2022-08-31T19:51:31.446Z,74389.28
2022-08-31T19:54:00.917Z,74401.63
2022-08-31T19:56:31.083Z,74383.13
2022-08-31T19:58:59.281Z,74405.72
2022-08-31T20:01:28.219Z,74411.88
2022-08-31T20:03:55.985Z,74397.50
2022-08-31T20:06:23.505Z,74401.63
2022-08-31T20:08:50.659Z,74405.72
2022-08-31T20:11:21.843Z,74397.50
2022-08-31T20:13:49.681Z,74420.09
2022-08-31T20:16:17.234Z,74397.50
2022-08-31T20:18:48.507Z,74405.72
2022-08-31T20:21:17.340Z,74413.94
2022-08-31T20:23:45.152Z,74405.72
2022-08-31T20:26:12.352Z,74391.34
2022-08-31T20:28:40.504Z,74385.19
2022-08-31T20:31:08.430Z,74395.47
2022-08-31T20:33:35.865Z,74409.84
2022-08-31T20:36:19.071Z,74393.41
2022-08-31T20:38:46.782Z,74385.19
2022-08-31T20:41:14.217Z,74372.84
2022-08-31T20:43:41.658Z,74389.28
2022-08-31T20:46:09.001Z,74401.63
2022-08-31T20:49:15.271Z,74409.84
2022-08-31T20:51:42.465Z,74430.38
2022-08-31T20:54:09.539Z,74422.16
2022-08-31T20:56:38.283Z,74405.72
2022-08-31T20:59:08.781Z,74416.00
2022-08-31T21:01:37.935Z,74426.28
2022-08-31T21:04:05.507Z,74422.16
2022-08-31T21:06:36.951Z,74405.72
2022-08-31T21:09:04.111Z,74426.28
2022-08-31T21:11:35.695Z,74418.06
2022-08-31T21:14:03.389Z,74422.16
2022-08-31T21:16:32.338Z,74434.50
2022-08-31T21:18:59.481Z,74418.06
2022-08-31T21:21:31.121Z,74422.16
2022-08-31T21:23:58.380Z,74418.06
2022-08-31T21:26:26.467Z,74438.59
2022-08-31T21:28:54.130Z,74438.59
2022-08-31T21:31:28.554Z,74430.38
2022-08-31T21:33:57.324Z,74434.50
2022-08-31T21:36:26.127Z,74463.25
2022-08-31T21:38:54.232Z,74452.97
2022-08-31T21:41:22.062Z,74483.78
2022-08-31T21:43:49.221Z,74459.16
2022-08-31T21:46:17.409Z,74475.56
2022-08-31T21:48:44.780Z,74487.91
2022-08-31T21:51:16.096Z,74487.91
2022-08-31T21:53:43.839Z,74465.31
2022-08-31T21:56:10.990Z,74442.72
2022-08-31T21:58:38.331Z,74446.81
2022-08-31T22:01:08.009Z,74475.56
2022-08-31T22:03:40.517Z,74442.72
2022-08-31T22:06:08.201Z,74471.47
2022-08-31T22:08:35.685Z,74469.41
2022-08-31T22:11:08.175Z,74467.34
2022-08-31T22:13:37.182Z,74481.75
2022-08-31T22:16:08.977Z,74461.19
2022-08-31T22:21:30.465Z,74450.94
2022-08-31T22:23:59.647Z,74448.88
2022-08-31T22:26:27.266Z,74452.97
2022-08-31T22:28:54.643Z,74479.69
2022-08-31T22:31:22.187Z,74487.91
2022-08-31T22:33:49.702Z,74502.28
2022-08-31T22:36:31.062Z,74504.34
2022-08-31T22:39:00.535Z,74512.56
2022-08-31T22:41:27.740Z,74500.22
2022-08-31T22:43:54.936Z,74483.78
2022-08-31T22:46:22.073Z,74475.56
2022-08-31T22:48:49.298Z,74492.00
2022-08-31T22:51:16.506Z,74475.56
2022-08-31T22:53:44.626Z,74479.69
2022-08-31T22:56:22.019Z,74446.81
2022-08-31T22:58:49.670Z,74467.34
2022-08-31T23:01:21.284Z,74467.34
2022-08-31T23:03:51.225Z,74442.72
2022-08-31T23:06:20.778Z,74471.47
2022-08-31T23:08:48.966Z,74459.16
2022-08-31T23:11:19.067Z,74463.25
2022-08-31T23:13:53.897Z,74494.06
2022-08-31T23:16:23.250Z,74506.41
2022-08-31T23:18:57.641Z,74487.91
2022-08-31T23:21:25.066Z,74487.91
2022-08-31T23:23:53.672Z,74498.19
2022-08-31T23:26:21.236Z,74502.28
2022-08-31T23:28:48.443Z,74516.66
2022-08-31T23:31:15.680Z,74524.88
2022-08-31T23:33:44.065Z,74512.56
2022-08-31T23:36:12.245Z,74541.31
2022-08-31T23:38:39.437Z,74549.53
2022-08-31T23:41:06.612Z,74541.31
2022-08-31T23:43:40.930Z,74547.47
2022-08-31T23:46:08.092Z,74549.53
2022-08-31T23:48:35.256Z,74533.09
2022-08-31T23:51:06.531Z,74553.66
2022-08-31T23:53:34.251Z,74535.16
2022-08-31T23:56:08.842Z,74516.66
2022-08-31T23:58:36.171Z,74561.88
